sensor_id;sensor_type;location;lat;lon;timestamp;pressure;altitude;pressure_sealevel;temperature;humidity
9059;BME280;4564;42.034;25.834;2023-01-05T00:01:30;101207.84;;;9.42;100.00
9059;BME280;4564;42.034;25.834;2023-01-05T00:03:57;101212.16;;;9.35;100.00
9059;BME280;4564;42.034;25.834;2023-01-05T00:06:23;101208.97;;;9.40;100.00
9059;BME280;4564;42.034;25.834;2023-01-05T00:08:50;101215.44;;;9.21;100.00
9059;BME280;4564;42.034;25.834;2023-01-05T00:11:17;101216.16;;;9.23;100.00
9059;BME280;4564;42.034;25.834;2023-01-05T00:14:01;101211.41;;;9.07;100.00
9059;BME280;4564;42.034;25.834;2023-01-05T00:16:47;101204.84;;;9.10;100.00
9059;BME280;4564;42.034;25.834;2023-01-05T00:19:31;101208.69;;;9.25;100.00
9059;BME280;4564;42.034;25.834;2023-01-05T00:22:16;101209.78;;;9.14;100.00
9059;BME280;4564;42.034;25.834;2023-01-05T00:25:07;101207.47;;;9.02;100.00
9059;BME280;4564;42.034;25.834;2023-01-05T00:27:34;101207.09;;;8.97;100.00
9059;BME280;4564;42.034;25.834;2023-01-05T00:30:00;101202.84;;;8.94;100.00
9059;BME280;4564;42.034;25.834;2023-01-05T00:32:28;101201.59;;;8.89;100.00
9059;BME280;4564;42.034;25.834;2023-01-05T00:34:55;101196.34;;;8.87;100.00
9059;BME280;4564;42.034;25.834;2023-01-05T00:37:22;101196.44;;;8.95;100.00
9059;BME280;4564;42.034;25.834;2023-01-05T00:39:49;101191.50;;;8.91;100.00
9059;BME280;4564;42.034;25.834;2023-01-05T00:42:16;101189.78;;;8.90;100.00
9059;BME280;4564;42.034;25.834;2023-01-05T00:44:43;101181.56;;;8.81;100.00
9059;BME280;4564;42.034;25.834;2023-01-05T00:47:10;101178.63;;;8.75;100.00
9059;BME280;4564;42.034;25.834;2023-01-05T00:49:38;101182.50;;;8.72;100.00
9059;BME280;4564;42.034;25.834;2023-01-05T00:52:05;101188.84;;;8.63;100.00
9059;BME280;4564;42.034;25.834;2023-01-05T00:54:31;101182.31;;;8.56;100.00
9059;BME280;4564;42.034;25.834;2023-01-05T00:56:58;101181.22;;;8.49;100.00
9059;BME280;4564;42.034;25.834;2023-01-05T00:59:25;101182.53;;;8.45;100.00
9059;BME280;4564;42.034;25.834;2023-01-05T01:01:51;101177.88;;;8.37;100.00
9059;BME280;4564;42.034;25.834;2023-01-05T01:04:18;101184.44;;;8.35;100.00
9059;BME280;4564;42.034;25.834;2023-01-05T01:06:47;101168.41;;;8.24;100.00
9059;BME280;4564;42.034;25.834;2023-01-05T01:09:14;101167.16;;;8.18;100.00
9059;BME280;4564;42.034;25.834;2023-01-05T01:11:41;101159.78;;;8.11;100.00
9059;BME280;4564;42.034;25.834;2023-01-05T01:14:09;101164.38;;;8.00;100.00
9059;BME280;4564;42.034;25.834;2023-01-05T01:16:36;101158.31;;;7.89;100.00
9059;BME280;4564;42.034;25.834;2023-01-05T01:19:02;101151.97;;;7.80;100.00
9059;BME280;4564;42.034;25.834;2023-01-05T01:21:29;101148.31;;;7.72;100.00
9059;BME280;4564;42.034;25.834;2023-01-05T01:23:57;101151.72;;;7.64;100.00
9059;BME280;4564;42.034;25.834;2023-01-05T01:26:23;101150.34;;;7.60;100.00
9059;BME280;4564;42.034;25.834;2023-01-05T01:28:50;101149.34;;;7.61;100.00
9059;BME280;4564;42.034;25.834;2023-01-05T01:31:17;101145.47;;;7.64;100.00
9059;BME280;4564;42.034;25.834;2023-01-05T01:33:43;101135.97;;;7.59;100.00
9059;BME280;4564;42.034;25.834;2023-01-05T01:36:10;101134.56;;;7.55;100.00
9059;BME280;4564;42.034;25.834;2023-01-05T01:38:36;101133.31;;;7.50;100.00
9059;BME280;4564;42.034;25.834;2023-01-05T01:41:05;101128.50;;;7.44;100.00
9059;BME280;4564;42.034;25.834;2023-01-05T01:43:39;101123.53;;;7.39;100.00
9059;BME280;4564;42.034;25.834;2023-01-05T01:46:07;101124.81;;;7.45;100.00
9059;BME280;4564;42.034;25.834;2023-01-05T01:48:34;101122.50;;;7.40;100.00
9059;BME280;4564;42.034;25.834;2023-01-05T01:51:01;101124.19;;;7.51;100.00
9059;BME280;4564;42.034;25.834;2023-01-05T01:53:29;101119.38;;;7.54;100.00
9059;BME280;4564;42.034;25.834;2023-01-05T01:55:57;101109.81;;;7.50;100.00
9059;BME280;4564;42.034;25.834;2023-01-05T01:58:27;101107.97;;;7.51;100.00
9059;BME280;4564;42.034;25.834;2023-01-05T02:00:55;101102.47;;;7.43;100.00
9059;BME280;4564;42.034;25.834;2023-01-05T02:03:24;101096.94;;;7.44;100.00
9059;BME280;4564;42.034;25.834;2023-01-05T02:05:51;101087.13;;;7.43;100.00
9059;BME280;4564;42.034;25.834;2023-01-05T02:08:18;101087.00;;;7.45;100.00
9059;BME280;4564;42.034;25.834;2023-01-05T02:10:54;101083.44;;;7.44;100.00
9059;BME280;4564;42.034;25.834;2023-01-05T02:13:29;101087.69;;;7.47;100.00
9059;BME280;4564;42.034;25.834;2023-01-05T02:16:01;101075.97;;;7.56;100.00
9059;BME280;4564;42.034;25.834;2023-01-05T02:18:32;101078.28;;;7.51;100.00
9059;BME280;4564;42.034;25.834;2023-01-05T02:21:05;101073.63;;;7.43;100.00
9059;BME280;4564;42.034;25.834;2023-01-05T02:23:46;101068.50;;;7.40;100.00
9059;BME280;4564;42.034;25.834;2023-01-05T02:29:10;101068.19;;;7.53;100.00
9059;BME280;4564;42.034;25.834;2023-01-05T02:31:46;101056.41;;;7.54;100.00
9059;BME280;4564;42.034;25.834;2023-01-05T02:34:18;101060.63;;;7.56;100.00
9059;BME280;4564;42.034;25.834;2023-01-05T02:36:46;101051.69;;;7.56;100.00
9059;BME280;4564;42.034;25.834;2023-01-05T02:39:18;101050.53;;;7.58;100.00
9059;BME280;4564;42.034;25.834;2023-01-05T02:41:48;101049.41;;;7.61;100.00
9059;BME280;4564;42.034;25.834;2023-01-05T02:44:18;101048.09;;;7.65;100.00
9059;BME280;4564;42.034;25.834;2023-01-05T02:46:46;101043.69;;;7.64;100.00
9059;BME280;4564;42.034;25.834;2023-01-05T02:49:24;101040.38;;;7.70;100.00
9059;BME280;4564;42.034;25.834;2023-01-05T02:51:51;101035.00;;;7.70;100.00
9059;BME280;4564;42.034;25.834;2023-01-05T02:54:21;101038.69;;;7.69;100.00
9059;BME280;4564;42.034;25.834;2023-01-05T02:56:50;101031.44;;;7.70;100.00
9059;BME280;4564;42.034;25.834;2023-01-05T02:59:18;101036.28;;;7.66;100.00
9059;BME280;4564;42.034;25.834;2023-01-05T03:01:50;101029.19;;;7.65;100.00
9059;BME280;4564;42.034;25.834;2023-01-05T03:04:19;101037.75;;;7.61;100.00
9059;BME280;4564;42.034;25.834;2023-01-05T03:06:47;101029.25;;;7.55;100.00
9059;BME280;4564;42.034;25.834;2023-01-05T03:09:20;101030.06;;;7.56;100.00
9059;BME280;4564;42.034;25.834;2023-01-05T03:11:53;101024.72;;;7.46;100.00
9059;BME280;4564;42.034;25.834;2023-01-05T03:14:40;101027.03;;;7.41;100.00
9059;BME280;4564;42.034;25.834;2023-01-05T03:17:10;101019.91;;;7.40;100.00
9059;BME280;4564;42.034;25.834;2023-01-05T03:19:38;101031.16;;;7.36;100.00
9059;BME280;4564;42.034;25.834;2023-01-05T03:22:10;101021.97;;;7.29;100.00
9059;BME280;4564;42.034;25.834;2023-01-05T03:24:56;101026.66;;;7.27;100.00
9059;BME280;4564;42.034;25.834;2023-01-05T03:27:41;101033.50;;;7.21;100.00
9059;BME280;4564;42.034;25.834;2023-01-05T03:30:26;101026.66;;;7.27;100.00
9059;BME280;4564;42.034;25.834;2023-01-05T03:33:20;101024.25;;;7.24;100.00
9059;BME280;4564;42.034;25.834;2023-01-05T03:36:06;101025.13;;;7.14;100.00
9059;BME280;4564;42.034;25.834;2023-01-05T03:38:35;101029.53;;;7.15;100.00
9059;BME280;4564;42.034;25.834;2023-01-05T03:41:04;101024.00;;;7.07;100.00
9059;BME280;4564;42.034;25.834;2023-01-05T03:43:34;101019.34;;;7.09;100.00
9059;BME280;4564;42.034;25.834;2023-01-05T03:46:03;101022.91;;;7.00;100.00
9059;BME280;4564;42.034;25.834;2023-01-05T03:48:36;101011.31;;;6.90;100.00
9059;BME280;4564;42.034;25.834;2023-01-05T03:51:03;101009.06;;;6.76;100.00
9059;BME280;4564;42.034;25.834;2023-01-05T03:53:29;100997.56;;;6.64;100.00
9059;BME280;4564;42.034;25.834;2023-01-05T03:55:56;101005.09;;;6.61;100.00
9059;BME280;4564;42.034;25.834;2023-01-05T03:58:22;100996.03;;;6.62;100.00
9059;BME280;4564;42.034;25.834;2023-01-05T04:00:49;100992.59;;;6.69;100.00
9059;BME280;4564;42.034;25.834;2023-01-05T04:03:16;100985.66;;;6.67;100.00
9059;BME280;4564;42.034;25.834;2023-01-05T04:05:44;100987.66;;;6.55;100.00
9059;BME280;4564;42.034;25.834;2023-01-05T04:08:10;100998.59;;;6.54;100.00
9059;BME280;4564;42.034;25.834;2023-01-05T04:10:37;100997.19;;;6.50;100.00
9059;BME280;4564;42.034;25.834;2023-01-05T04:13:03;100997.75;;;6.44;100.00
9059;BME280;4564;42.034;25.834;2023-01-05T04:15:30;100996.91;;;6.33;100.00
9059;BME280;4564;42.034;25.834;2023-01-05T04:17:56;100998.75;;;6.33;100.00
9059;BME280;4564;42.034;25.834;2023-01-05T04:20:23;100993.53;;;6.31;100.00
9059;BME280;4564;42.034;25.834;2023-01-05T04:22:51;100989.56;;;6.26;100.00
9059;BME280;4564;42.034;25.834;2023-01-05T04:25:17;100991.97;;;6.19;100.00
9059;BME280;4564;42.034;25.834;2023-01-05T04:27:44;100992.38;;;6.24;100.00
9059;BME280;4564;42.034;25.834;2023-01-05T04:30:11;100985.16;;;6.25;100.00
9059;BME280;4564;42.034;25.834;2023-01-05T04:32:38;100995.63;;;6.18;100.00
9059;BME280;4564;42.034;25.834;2023-01-05T04:35:04;100989.25;;;6.19;100.00
9059;BME280;4564;42.034;25.834;2023-01-05T04:37:31;100981.88;;;6.21;100.00
9059;BME280;4564;42.034;25.834;2023-01-05T04:39:59;100981.31;;;6.18;100.00
9059;BME280;4564;42.034;25.834;2023-01-05T04:42:26;100977.06;;;6.15;100.00
9059;BME280;4564;42.034;25.834;2023-01-05T04:44:52;100982.88;;;6.20;100.00
9059;BME280;4564;42.034;25.834;2023-01-05T04:47:19;100972.09;;;6.11;100.00
9059;BME280;4564;42.034;25.834;2023-01-05T04:49:46;100967.44;;;6.03;100.00
9059;BME280;4564;42.034;25.834;2023-01-05T04:52:13;100967.81;;;5.89;100.00
9059;BME280;4564;42.034;25.834;2023-01-05T04:54:39;100970.78;;;5.86;100.00
9059;BME280;4564;42.034;25.834;2023-01-05T04:57:07;100978.69;;;5.78;100.00
9059;BME280;4564;42.034;25.834;2023-01-05T04:59:33;100977.03;;;5.77;100.00
9059;BME280;4564;42.034;25.834;2023-01-05T05:02:00;100975.00;;;5.79;100.00
9059;BME280;4564;42.034;25.834;2023-01-05T05:04:27;100976.59;;;5.81;100.00
9059;BME280;4564;42.034;25.834;2023-01-05T05:06:53;100972.53;;;5.87;100.00
9059;BME280;4564;42.034;25.834;2023-01-05T05:09:20;100969.63;;;5.79;100.00
9059;BME280;4564;42.034;25.834;2023-01-05T05:11:47;100970.91;;;5.75;100.00
9059;BME280;4564;42.034;25.834;2023-01-05T05:14:15;100969.91;;;5.66;100.00
9059;BME280;4564;42.034;25.834;2023-01-05T05:16:41;100970.31;;;5.62;100.00
9059;BME280;4564;42.034;25.834;2023-01-05T05:19:08;100973.59;;;5.75;100.00
9059;BME280;4564;42.034;25.834;2023-01-05T05:21:34;100974.59;;;5.74;100.00
9059;BME280;4564;42.034;25.834;2023-01-05T05:24:01;100982.25;;;5.78;100.00
9059;BME280;4564;42.034;25.834;2023-01-05T05:26:27;100982.41;;;5.77;100.00
9059;BME280;4564;42.034;25.834;2023-01-05T05:28:56;100980.94;;;5.63;100.00
9059;BME280;4564;42.034;25.834;2023-01-05T05:31:24;100975.53;;;5.54;100.00
9059;BME280;4564;42.034;25.834;2023-01-05T05:33:51;100982.09;;;5.61;100.00
9059;BME280;4564;42.034;25.834;2023-01-05T05:36:17;100986.31;;;5.54;100.00
9059;BME280;4564;42.034;25.834;2023-01-05T05:38:44;100980.25;;;5.61;100.00
9059;BME280;4564;42.034;25.834;2023-01-05T05:41:10;100977.81;;;5.48;100.00
9059;BME280;4564;42.034;25.834;2023-01-05T05:43:37;100993.50;;;5.43;100.00
9059;BME280;4564;42.034;25.834;2023-01-05T05:46:04;100984.84;;;5.40;100.00
9059;BME280;4564;42.034;25.834;2023-01-05T05:48:32;100986.53;;;5.31;100.00
9059;BME280;4564;42.034;25.834;2023-01-05T05:50:58;100982.34;;;5.48;100.00
9059;BME280;4564;42.034;25.834;2023-01-05T05:53:25;100979.50;;;5.49;100.00
9059;BME280;4564;42.034;25.834;2023-01-05T05:55:51;100976.19;;;5.27;100.00
9059;BME280;4564;42.034;25.834;2023-01-05T05:58:18;100974.25;;;5.08;100.00
9059;BME280;4564;42.034;25.834;2023-01-05T06:00:45;100968.88;;;5.08;100.00
9059;BME280;4564;42.034;25.834;2023-01-05T06:03:12;100965.66;;;5.14;100.00
9059;BME280;4564;42.034;25.834;2023-01-05T06:05:39;100967.53;;;5.23;100.00
9059;BME280;4564;42.034;25.834;2023-01-05T06:08:06;100962.59;;;5.28;100.00
9059;BME280;4564;42.034;25.834;2023-01-05T06:10:33;100960.47;;;5.32;100.00
9059;BME280;4564;42.034;25.834;2023-01-05T06:12:59;100959.91;;;5.28;100.00
9059;BME280;4564;42.034;25.834;2023-01-05T06:15:26;100965.13;;;5.30;100.00
9059;BME280;4564;42.034;25.834;2023-01-05T06:17:53;100952.41;;;5.32;100.00
9059;BME280;4564;42.034;25.834;2023-01-05T06:20:19;100955.53;;;5.37;100.00
9059;BME280;4564;42.034;25.834;2023-01-05T06:22:47;100951.88;;;5.47;100.00
9059;BME280;4564;42.034;25.834;2023-01-05T06:25:14;100948.03;;;5.40;100.00
9059;BME280;4564;42.034;25.834;2023-01-05T06:27:41;100940.66;;;5.33;100.00
9059;BME280;4564;42.034;25.834;2023-01-05T06:30:07;100939.63;;;5.24;100.00
9059;BME280;4564;42.034;25.834;2023-01-05T06:32:34;100940.91;;;5.30;100.00
9059;BME280;4564;42.034;25.834;2023-01-05T06:35:01;100935.41;;;5.31;100.00
9059;BME280;4564;42.034;25.834;2023-01-05T06:37:27;100931.59;;;5.34;100.00
9059;BME280;4564;42.034;25.834;2023-01-05T06:39:55;100932.16;;;5.37;100.00
9059;BME280;4564;42.034;25.834;2023-01-05T06:42:22;100936.47;;;5.59;100.00
9059;BME280;4564;42.034;25.834;2023-01-05T06:44:48;100931.38;;;5.66;100.00
9059;BME280;4564;42.034;25.834;2023-01-05T06:47:15;100932.78;;;5.70;100.00
9059;BME280;4564;42.034;25.834;2023-01-05T06:49:42;100936.31;;;5.80;100.00
9059;BME280;4564;42.034;25.834;2023-01-05T06:52:08;100936.53;;;5.88;100.00
9059;BME280;4564;42.034;25.834;2023-01-05T06:54:35;100942.75;;;6.08;100.00
9059;BME280;4564;42.034;25.834;2023-01-05T06:57:03;100940.59;;;6.21;100.00
9059;BME280;4564;42.034;25.834;2023-01-05T06:59:30;100932.34;;;6.32;100.00
9059;BME280;4564;42.034;25.834;2023-01-05T07:01:57;100947.28;;;6.36;100.00
9059;BME280;4564;42.034;25.834;2023-01-05T07:04:24;100950.66;;;6.28;100.00
9059;BME280;4564;42.034;25.834;2023-01-05T07:06:50;100949.13;;;6.36;100.00
9059;BME280;4564;42.034;25.834;2023-01-05T07:09:17;100944.41;;;6.38;100.00
9059;BME280;4564;42.034;25.834;2023-01-05T07:11:43;100946.94;;;6.49;100.00
9059;BME280;4564;42.034;25.834;2023-01-05T07:14:11;100945.22;;;6.67;100.00
9059;BME280;4564;42.034;25.834;2023-01-05T07:16:38;100947.16;;;6.84;100.00
9059;BME280;4564;42.034;25.834;2023-01-05T07:19:05;100943.97;;;6.98;100.00
9059;BME280;4564;42.034;25.834;2023-01-05T07:21:31;100945.28;;;7.22;100.00
9059;BME280;4564;42.034;25.834;2023-01-05T07:23:58;100946.81;;;7.24;100.00
9059;BME280;4564;42.034;25.834;2023-01-05T07:26:24;100944.38;;;7.31;100.00
9059;BME280;4564;42.034;25.834;2023-01-05T07:28:51;100943.47;;;7.40;100.00
9059;BME280;4564;42.034;25.834;2023-01-05T07:31:19;100942.81;;;7.55;100.00
9059;BME280;4564;42.034;25.834;2023-01-05T07:33:45;100939.41;;;7.53;100.00
9059;BME280;4564;42.034;25.834;2023-01-05T07:36:12;100941.59;;;7.50;100.00
9059;BME280;4564;42.034;25.834;2023-01-05T07:38:39;100928.69;;;7.44;100.00
9059;BME280;4564;42.034;25.834;2023-01-05T07:41:05;100924.53;;;7.67;100.00
9059;BME280;4564;42.034;25.834;2023-01-05T07:43:32;100927.16;;;7.59;100.00
9059;BME280;4564;42.034;25.834;2023-01-05T07:46:03;100922.75;;;7.58;100.00
9059;BME280;4564;42.034;25.834;2023-01-05T07:48:31;100927.81;;;7.43;100.00
9059;BME280;4564;42.034;25.834;2023-01-05T07:50:58;100922.78;;;7.31;100.00
9059;BME280;4564;42.034;25.834;2023-01-05T07:53:26;100930.13;;;7.11;100.00
9059;BME280;4564;42.034;25.834;2023-01-05T07:55:54;100928.88;;;7.05;100.00
9059;BME280;4564;42.034;25.834;2023-01-05T07:58:22;100916.94;;;7.08;100.00
9059;BME280;4564;42.034;25.834;2023-01-05T08:00:48;100922.97;;;7.20;100.00
9059;BME280;4564;42.034;25.834;2023-01-05T08:03:15;100925.41;;;7.23;100.00
9059;BME280;4564;42.034;25.834;2023-01-05T08:05:43;100922.72;;;7.40;100.00
9059;BME280;4564;42.034;25.834;2023-01-05T08:08:10;100921.25;;;7.46;100.00
9059;BME280;4564;42.034;25.834;2023-01-05T08:10:37;100920.72;;;7.42;100.00
9059;BME280;4564;42.034;25.834;2023-01-05T08:13:04;100915.25;;;7.52;100.00
9059;BME280;4564;42.034;25.834;2023-01-05T08:15:49;100907.19;;;7.70;100.00
9059;BME280;4564;42.034;25.834;2023-01-05T08:18:16;100896.28;;;7.79;100.00
9059;BME280;4564;42.034;25.834;2023-01-05T08:20:48;100908.25;;;7.94;100.00
9059;BME280;4564;42.034;25.834;2023-01-05T08:23:14;100903.22;;;7.99;100.00
9059;BME280;4564;42.034;25.834;2023-01-05T08:25:41;100903.69;;;8.13;100.00
9059;BME280;4564;42.034;25.834;2023-01-05T08:28:08;100906.66;;;8.27;100.00
9059;BME280;4564;42.034;25.834;2023-01-05T08:30:34;100894.09;;;8.36;100.00
9059;BME280;4564;42.034;25.834;2023-01-05T08:33:01;100902.59;;;8.41;100.00
9059;BME280;4564;42.034;25.834;2023-01-05T08:35:28;100893.00;;;8.47;100.00
9059;BME280;4564;42.034;25.834;2023-01-05T08:37:56;100898.66;;;8.61;100.00
9059;BME280;4564;42.034;25.834;2023-01-05T08:40:22;100887.63;;;8.55;100.00
9059;BME280;4564;42.034;25.834;2023-01-05T08:42:49;100882.31;;;8.71;100.00
9059;BME280;4564;42.034;25.834;2023-01-05T08:45:16;100876.47;;;8.83;100.00
9059;BME280;4564;42.034;25.834;2023-01-05T08:47:42;100873.69;;;8.75;100.00
9059;BME280;4564;42.034;25.834;2023-01-05T08:50:09;100875.38;;;8.68;100.00
9059;BME280;4564;42.034;25.834;2023-01-05T08:52:36;100873.34;;;8.70;100.00
9059;BME280;4564;42.034;25.834;2023-01-05T08:55:05;100855.78;;;8.74;100.00
9059;BME280;4564;42.034;25.834;2023-01-05T08:57:32;100857.38;;;8.59;100.00
9059;BME280;4564;42.034;25.834;2023-01-05T08:59:59;100860.44;;;8.64;100.00
9059;BME280;4564;42.034;25.834;2023-01-05T09:02:25;100841.72;;;8.71;100.00
9059;BME280;4564;42.034;25.834;2023-01-05T09:04:52;100840.56;;;8.81;100.00
9059;BME280;4564;42.034;25.834;2023-01-05T09:07:19;100839.63;;;8.91;100.00
9059;BME280;4564;42.034;25.834;2023-01-05T09:09:46;100829.47;;;8.93;100.00
9059;BME280;4564;42.034;25.834;2023-01-05T09:12:14;100829.81;;;8.90;100.00
9059;BME280;4564;42.034;25.834;2023-01-05T09:14:41;100828.66;;;9.08;100.00
9059;BME280;4564;42.034;25.834;2023-01-05T09:17:08;100831.91;;;9.20;100.00
9059;BME280;4564;42.034;25.834;2023-01-05T09:19:34;100814.34;;;9.40;100.00
9059;BME280;4564;42.034;25.834;2023-01-05T09:22:01;100809.97;;;9.63;100.00
9059;BME280;4564;42.034;25.834;2023-01-05T09:24:28;100814.41;;;9.81;99.66
9059;BME280;4564;42.034;25.834;2023-01-05T09:26:54;100803.72;;;9.87;98.91
9059;BME280;4564;42.034;25.834;2023-01-05T09:29:23;100795.06;;;10.00;99.70
9059;BME280;4564;42.034;25.834;2023-01-05T09:31:50;100793.53;;;10.30;98.51
9059;BME280;4564;42.034;25.834;2023-01-05T09:34:16;100784.72;;;10.75;97.29
9059;BME280;4564;42.034;25.834;2023-01-05T09:36:43;100773.06;;;10.97;95.62
9059;BME280;4564;42.034;25.834;2023-01-05T09:39:10;100771.63;;;11.09;94.83
9059;BME280;4564;42.034;25.834;2023-01-05T09:41:37;100763.75;;;10.91;93.45
9059;BME280;4564;42.034;25.834;2023-01-05T09:44:06;100739.69;;;10.58;93.99
9059;BME280;4564;42.034;25.834;2023-01-05T09:46:38;100733.88;;;10.61;95.00
9059;BME280;4564;42.034;25.834;2023-01-05T09:49:06;100731.34;;;10.59;95.57
9059;BME280;4564;42.034;25.834;2023-01-05T09:51:33;100713.88;;;10.62;96.37
9059;BME280;4564;42.034;25.834;2023-01-05T09:54:00;100714.03;;;10.68;96.89
9059;BME280;4564;42.034;25.834;2023-01-05T09:56:28;100711.38;;;10.83;96.21
9059;BME280;4564;42.034;25.834;2023-01-05T09:58:58;100704.25;;;10.82;96.11
9059;BME280;4564;42.034;25.834;2023-01-05T10:01:28;100698.13;;;10.88;96.17
9059;BME280;4564;42.034;25.834;2023-01-05T10:03:58;100695.88;;;10.91;96.19
9059;BME280;4564;42.034;25.834;2023-01-05T10:06:28;100688.22;;;10.95;95.43
9059;BME280;4564;42.034;25.834;2023-01-05T10:08:58;100681.34;;;11.07;95.22
9059;BME280;4564;42.034;25.834;2023-01-05T10:11:28;100672.41;;;10.99;94.62
9059;BME280;4564;42.034;25.834;2023-01-05T10:14:16;100666.72;;;11.08;94.04
9059;BME280;4564;42.034;25.834;2023-01-05T10:16:45;100663.78;;;10.95;94.40
9059;BME280;4564;42.034;25.834;2023-01-05T10:19:13;100658.97;;;11.05;94.52
9059;BME280;4564;42.034;25.834;2023-01-05T10:21:43;100650.69;;;10.99;94.32
9059;BME280;4564;42.034;25.834;2023-01-05T10:24:16;100642.78;;;11.12;94.53
9059;BME280;4564;42.034;25.834;2023-01-05T10:26:47;100641.56;;;11.14;94.78
9059;BME280;4564;42.034;25.834;2023-01-05T10:29:16;100628.22;;;11.27;94.38
9059;BME280;4564;42.034;25.834;2023-01-05T10:31:44;100623.66;;;11.43;94.01
9059;BME280;4564;42.034;25.834;2023-01-05T10:34:19;100609.69;;;11.46;93.36
9059;BME280;4564;42.034;25.834;2023-01-05T10:36:52;100596.03;;;11.54;92.04
9059;BME280;4564;42.034;25.834;2023-01-05T10:39:23;100591.75;;;11.74;92.16
9059;BME280;4564;42.034;25.834;2023-01-05T10:41:54;100587.41;;;11.94;91.43
9059;BME280;4564;42.034;25.834;2023-01-05T10:44:46;100576.91;;;12.06;90.70
9059;BME280;4564;42.034;25.834;2023-01-05T10:47:15;100577.38;;;11.95;88.98
9059;BME280;4564;42.034;25.834;2023-01-05T10:49:45;100567.81;;;11.99;89.83
9059;BME280;4564;42.034;25.834;2023-01-05T10:52:13;100568.84;;;12.12;88.88
9059;BME280;4564;42.034;25.834;2023-01-05T10:54:42;100576.31;;;12.25;89.76
9059;BME280;4564;42.034;25.834;2023-01-05T10:59:55;100561.38;;;12.36;86.94
9059;BME280;4564;42.034;25.834;2023-01-05T11:02:22;100557.22;;;12.40;86.48
9059;BME280;4564;42.034;25.834;2023-01-05T11:04:51;100551.38;;;12.43;83.33
9059;BME280;4564;42.034;25.834;2023-01-05T11:07:19;100546.94;;;12.56;82.71
9059;BME280;4564;42.034;25.834;2023-01-05T11:09:46;100538.03;;;12.69;81.46
9059;BME280;4564;42.034;25.834;2023-01-05T11:12:14;100531.88;;;12.82;81.72
9059;BME280;4564;42.034;25.834;2023-01-05T11:14:42;100534.31;;;12.98;81.16
9059;BME280;4564;42.034;25.834;2023-01-05T11:17:14;100528.28;;;13.02;78.26
9059;BME280;4564;42.034;25.834;2023-01-05T11:19:45;100528.94;;;13.04;78.46
9059;BME280;4564;42.034;25.834;2023-01-05T11:22:27;100525.97;;;12.99;78.78
9059;BME280;4564;42.034;25.834;2023-01-05T11:25:03;100513.53;;;13.12;78.62
9059;BME280;4564;42.034;25.834;2023-01-05T11:27:37;100513.69;;;13.38;78.72
9059;BME280;4564;42.034;25.834;2023-01-05T11:30:17;100508.00;;;13.33;77.97
9059;BME280;4564;42.034;25.834;2023-01-05T11:32:44;100506.63;;;13.50;78.72
9059;BME280;4564;42.034;25.834;2023-01-05T11:35:16;100500.00;;;13.66;76.40
9059;BME280;4564;42.034;25.834;2023-01-05T11:37:45;100495.00;;;13.69;75.62
9059;BME280;4564;42.034;25.834;2023-01-05T11:40:15;100498.19;;;13.79;76.12
9059;BME280;4564;42.034;25.834;2023-01-05T11:42:42;100490.72;;;14.01;76.98
9059;BME280;4564;42.034;25.834;2023-01-05T11:45:16;100496.63;;;14.11;74.76
9059;BME280;4564;42.034;25.834;2023-01-05T11:47:45;100481.75;;;14.27;73.58
9059;BME280;4564;42.034;25.834;2023-01-05T11:50:17;100474.66;;;14.52;73.12
9059;BME280;4564;42.034;25.834;2023-01-05T11:52:48;100468.16;;;14.53;72.45
9059;BME280;4564;42.034;25.834;2023-01-05T11:55:29;100473.00;;;14.45;72.77
9059;BME280;4564;42.034;25.834;2023-01-05T11:58:14;100469.22;;;14.52;73.83
9059;BME280;4564;42.034;25.834;2023-01-05T12:00:49;100470.28;;;14.51;73.42
9059;BME280;4564;42.034;25.834;2023-01-05T12:03:23;100456.22;;;14.41;74.60
9059;BME280;4564;42.034;25.834;2023-01-05T12:05:54;100449.63;;;14.29;74.21
9059;BME280;4564;42.034;25.834;2023-01-05T12:08:25;100445.22;;;14.28;73.94
9059;BME280;4564;42.034;25.834;2023-01-05T12:10:55;100445.41;;;14.26;74.13
9059;BME280;4564;42.034;25.834;2023-01-05T12:13:29;100447.50;;;14.11;74.17
9059;BME280;4564;42.034;25.834;2023-01-05T12:16:08;100424.84;;;14.17;75.06
9059;BME280;4564;42.034;25.834;2023-01-05T12:18:49;100420.22;;;14.24;74.46
9059;BME280;4564;42.034;25.834;2023-01-05T12:21:19;100421.25;;;14.10;74.94
9059;BME280;4564;42.034;25.834;2023-01-05T12:26:34;100420.56;;;13.88;75.69
9059;BME280;4564;42.034;25.834;2023-01-05T12:29:16;100416.34;;;13.79;75.59
9059;BME280;4564;42.034;25.834;2023-01-05T12:31:53;100414.03;;;13.76;76.11
9059;BME280;4564;42.034;25.834;2023-01-05T12:34:31;100414.22;;;13.68;76.73
9059;BME280;4564;42.034;25.834;2023-01-05T12:37:03;100417.59;;;13.70;76.30
9059;BME280;4564;42.034;25.834;2023-01-05T12:39:40;100407.88;;;13.61;76.82
9059;BME280;4564;42.034;25.834;2023-01-05T12:42:20;100403.28;;;13.62;76.89
9059;BME280;4564;42.034;25.834;2023-01-05T12:44:53;100399.44;;;13.50;77.16
9059;BME280;4564;42.034;25.834;2023-01-05T12:47:27;100404.66;;;13.44;77.29
9059;BME280;4564;42.034;25.834;2023-01-05T12:49:57;100401.75;;;13.46;77.28
9059;BME280;4564;42.034;25.834;2023-01-05T12:52:26;100401.94;;;13.38;77.19
9059;BME280;4564;42.034;25.834;2023-01-05T12:54:58;100401.13;;;13.44;76.82
9059;BME280;4564;42.034;25.834;2023-01-05T12:57:31;100401.47;;;13.34;76.93
9059;BME280;4564;42.034;25.834;2023-01-05T13:00:00;100397.28;;;13.32;77.55
9059;BME280;4564;42.034;25.834;2023-01-05T13:02:30;100405.63;;;13.24;77.64
9059;BME280;4564;42.034;25.834;2023-01-05T13:04:59;100400.59;;;13.21;77.56
9059;BME280;4564;42.034;25.834;2023-01-05T13:07:29;100393.41;;;13.13;77.95
9059;BME280;4564;42.034;25.834;2023-01-05T13:09:58;100391.25;;;13.09;78.41
9059;BME280;4564;42.034;25.834;2023-01-05T13:12:26;100393.34;;;13.07;78.55
9059;BME280;4564;42.034;25.834;2023-01-05T13:14:58;100391.63;;;12.99;79.22
9059;BME280;4564;42.034;25.834;2023-01-05T13:17:28;100392.91;;;13.03;78.11
9059;BME280;4564;42.034;25.834;2023-01-05T13:19:59;100391.44;;;13.07;77.81